sensor_id;sensor_type;location;lat;lon;timestamp;temperature;humidity
3023;DHT22;1521;53.584;9.938;2024-02-23T00:01:30;9.90;1.00
3023;DHT22;1521;53.584;9.938;2024-02-23T00:03:56;9.90;1.00
3023;DHT22;1521;53.584;9.938;2024-02-23T00:06:21;9.90;1.00
3023;DHT22;1521;53.584;9.938;2024-02-23T00:08:53;9.80;1.00
3023;DHT22;1521;53.584;9.938;2024-02-23T00:11:20;9.80;1.00
3023;DHT22;1521;53.584;9.938;2024-02-23T00:13:46;9.80;1.00
3023;DHT22;1521;53.584;9.938;2024-02-23T00:16:11;9.70;1.00
3023;DHT22;1521;53.584;9.938;2024-02-23T00:18:37;9.70;1.00
3023;DHT22;1521;53.584;9.938;2024-02-23T00:21:03;9.60;1.00
3023;DHT22;1521;53.584;9.938;2024-02-23T00:23:29;9.60;1.00
3023;DHT22;1521;53.584;9.938;2024-02-23T00:25:54;9.50;1.00
3023;DHT22;1521;53.584;9.938;2024-02-23T00:28:20;9.50;1.00
3023;DHT22;1521;53.584;9.938;2024-02-23T00:30:45;9.50;1.00
3023;DHT22;1521;53.584;9.938;2024-02-23T00:33:11;9.50;1.00
3023;DHT22;1521;53.584;9.938;2024-02-23T00:35:36;9.50;1.00
3023;DHT22;1521;53.584;9.938;2024-02-23T00:38:02;9.50;1.00
3023;DHT22;1521;53.584;9.938;2024-02-23T00:40:27;9.60;1.00
3023;DHT22;1521;53.584;9.938;2024-02-23T00:42:53;9.60;1.00
3023;DHT22;1521;53.584;9.938;2024-02-23T00:45:19;9.50;1.00
3023;DHT22;1521;53.584;9.938;2024-02-23T00:47:44;9.50;1.00
3023;DHT22;1521;53.584;9.938;2024-02-23T00:50:12;9.40;1.00
3023;DHT22;1521;53.584;9.938;2024-02-23T00:52:38;9.00;1.00
3023;DHT22;1521;53.584;9.938;2024-02-23T00:55:03;8.40;1.00
3023;DHT22;1521;53.584;9.938;2024-02-23T00:57:29;8.10;1.00
3023;DHT22;1521;53.584;9.938;2024-02-23T00:59:58;7.80;1.00
3023;DHT22;1521;53.584;9.938;2024-02-23T01:02:23;7.60;1.00
3023;DHT22;1521;53.584;9.938;2024-02-23T01:04:49;7.50;1.00
3023;DHT22;1521;53.584;9.938;2024-02-23T01:07:14;7.50;1.00
3023;DHT22;1521;53.584;9.938;2024-02-23T01:09:40;7.40;1.00
3023;DHT22;1521;53.584;9.938;2024-02-23T01:12:06;7.40;1.00
3023;DHT22;1521;53.584;9.938;2024-02-23T01:14:31;7.40;1.00
3023;DHT22;1521;53.584;9.938;2024-02-23T01:16:57;7.40;1.00
3023;DHT22;1521;53.584;9.938;2024-02-23T01:19:22;7.40;1.00
3023;DHT22;1521;53.584;9.938;2024-02-23T01:21:49;7.30;1.00
3023;DHT22;1521;53.584;9.938;2024-02-23T01:24:21;7.30;1.00
3023;DHT22;1521;53.584;9.938;2024-02-23T01:26:47;7.30;1.00
3023;DHT22;1521;53.584;9.938;2024-02-23T01:29:12;7.30;1.00
3023;DHT22;1521;53.584;9.938;2024-02-23T01:31:38;7.30;1.00
3023;DHT22;1521;53.584;9.938;2024-02-23T01:34:04;7.30;1.00
3023;DHT22;1521;53.584;9.938;2024-02-23T01:36:29;7.30;1.00
3023;DHT22;1521;53.584;9.938;2024-02-23T01:38:55;7.30;1.00
3023;DHT22;1521;53.584;9.938;2024-02-23T01:41:20;7.20;1.00
3023;DHT22;1521;53.584;9.938;2024-02-23T01:43:46;7.30;1.00
3023;DHT22;1521;53.584;9.938;2024-02-23T01:46:12;7.30;1.00
3023;DHT22;1521;53.584;9.938;2024-02-23T01:48:38;7.30;1.00
3023;DHT22;1521;53.584;9.938;2024-02-23T01:51:04;9.20;1.00
3023;DHT22;1521;53.584;9.938;2024-02-23T01:53:30;7.30;1.00
3023;DHT22;1521;53.584;9.938;2024-02-23T01:55:57;7.30;1.00
3023;DHT22;1521;53.584;9.938;2024-02-23T01:58:24;7.20;1.00
3023;DHT22;1521;53.584;9.938;2024-02-23T02:00:50;7.20;1.00
3023;DHT22;1521;53.584;9.938;2024-02-23T02:03:15;7.20;1.00
3023;DHT22;1521;53.584;9.938;2024-02-23T02:05:41;7.20;1.00
3023;DHT22;1521;53.584;9.938;2024-02-23T02:08:07;7.20;1.00
3023;DHT22;1521;53.584;9.938;2024-02-23T02:10:32;7.10;1.00
3023;DHT22;1521;53.584;9.938;2024-02-23T02:13:05;7.00;1.00
3023;DHT22;1521;53.584;9.938;2024-02-23T02:15:31;7.00;1.00
3023;DHT22;1521;53.584;9.938;2024-02-23T02:17:56;6.90;1.00
3023;DHT22;1521;53.584;9.938;2024-02-23T02:20:24;6.90;1.00
3023;DHT22;1521;53.584;9.938;2024-02-23T02:22:50;6.80;1.00
3023;DHT22;1521;53.584;9.938;2024-02-23T02:25:16;6.80;1.00
3023;DHT22;1521;53.584;9.938;2024-02-23T02:27:41;6.80;1.00
3023;DHT22;1521;53.584;9.938;2024-02-23T02:30:07;6.80;1.00
3023;DHT22;1521;53.584;9.938;2024-02-23T02:32:35;6.70;1.00
3023;DHT22;1521;53.584;9.938;2024-02-23T02:35:00;8.60;1.00
3023;DHT22;1521;53.584;9.938;2024-02-23T02:37:26;6.60;1.00
3023;DHT22;1521;53.584;9.938;2024-02-23T02:39:51;6.60;1.00
3023;DHT22;1521;53.584;9.938;2024-02-23T02:42:17;6.50;1.00
3023;DHT22;1521;53.584;9.938;2024-02-23T02:44:42;6.50;1.00
3023;DHT22;1521;53.584;9.938;2024-02-23T02:47:08;6.50;1.00
3023;DHT22;1521;53.584;9.938;2024-02-23T02:49:33;6.50;1.00
3023;DHT22;1521;53.584;9.938;2024-02-23T02:51:59;6.40;1.00
3023;DHT22;1521;53.584;9.938;2024-02-23T02:54:24;6.40;1.00
3023;DHT22;1521;53.584;9.938;2024-02-23T02:56:50;6.30;1.00
3023;DHT22;1521;53.584;9.938;2024-02-23T02:59:19;6.20;3.20
3023;DHT22;1521;53.584;9.938;2024-02-23T03:01:45;6.10;1.00
3023;DHT22;1521;53.584;9.938;2024-02-23T03:04:13;6.10;1.00
3023;DHT22;1521;53.584;9.938;2024-02-23T03:06:39;6.10;1.00
3023;DHT22;1521;53.584;9.938;2024-02-23T03:09:05;6.10;1.00
3023;DHT22;1521;53.584;9.938;2024-02-23T03:11:30;6.20;1.00
3023;DHT22;1521;53.584;9.938;2024-02-23T03:13:56;6.10;1.00
3023;DHT22;1521;53.584;9.938;2024-02-23T03:16:21;6.10;1.00
3023;DHT22;1521;53.584;9.938;2024-02-23T03:18:55;6.10;1.00
3023;DHT22;1521;53.584;9.938;2024-02-23T03:21:21;6.00;1.00
3023;DHT22;1521;53.584;9.938;2024-02-23T03:23:46;6.00;1.00
3023;DHT22;1521;53.584;9.938;2024-02-23T03:26:12;6.00;1.00
3023;DHT22;1521;53.584;9.938;2024-02-23T03:28:38;6.00;1.00
3023;DHT22;1521;53.584;9.938;2024-02-23T03:31:03;6.00;1.00
3023;DHT22;1521;53.584;9.938;2024-02-23T03:33:29;6.00;1.00
3023;DHT22;1521;53.584;9.938;2024-02-23T03:35:54;5.90;1.00
3023;DHT22;1521;53.584;9.938;2024-02-23T03:38:20;5.90;1.00
3023;DHT22;1521;53.584;9.938;2024-02-23T03:40:46;5.80;1.00
3023;DHT22;1521;53.584;9.938;2024-02-23T03:43:11;5.80;1.00
3023;DHT22;1521;53.584;9.938;2024-02-23T03:45:37;5.80;1.00
3023;DHT22;1521;53.584;9.938;2024-02-23T03:48:04;5.80;1.00
3023;DHT22;1521;53.584;9.938;2024-02-23T03:50:30;5.70;1.00
3023;DHT22;1521;53.584;9.938;2024-02-23T03:52:56;5.70;1.00
3023;DHT22;1521;53.584;9.938;2024-02-23T03:55:21;5.60;1.00
3023;DHT22;1521;53.584;9.938;2024-02-23T03:57:47;5.70;1.00
3023;DHT22;1521;53.584;9.938;2024-02-23T04:00:13;5.60;1.00
3023;DHT22;1521;53.584;9.938;2024-02-23T04:02:39;5.60;1.00
3023;DHT22;1521;53.584;9.938;2024-02-23T04:05:06;5.60;1.00
3023;DHT22;1521;53.584;9.938;2024-02-23T04:07:31;5.60;1.00
3023;DHT22;1521;53.584;9.938;2024-02-23T04:09:57;5.60;1.00
3023;DHT22;1521;53.584;9.938;2024-02-23T04:12:23;5.60;1.00
3023;DHT22;1521;53.584;9.938;2024-02-23T04:14:49;5.50;1.00
3023;DHT22;1521;53.584;9.938;2024-02-23T04:17:14;5.50;1.00
3023;DHT22;1521;53.584;9.938;2024-02-23T04:19:41;5.50;1.00
3023;DHT22;1521;53.584;9.938;2024-02-23T04:22:09;5.50;1.00
3023;DHT22;1521;53.584;9.938;2024-02-23T04:24:39;5.50;1.00
3023;DHT22;1521;53.584;9.938;2024-02-23T04:27:06;5.60;1.00
3023;DHT22;1521;53.584;9.938;2024-02-23T04:29:32;5.60;1.00
3023;DHT22;1521;53.584;9.938;2024-02-23T04:31:59;5.60;1.00
3023;DHT22;1521;53.584;9.938;2024-02-23T04:34:25;5.70;1.00
3023;DHT22;1521;53.584;9.938;2024-02-23T04:36:50;5.70;1.00
3023;DHT22;1521;53.584;9.938;2024-02-23T04:39:16;5.70;1.00
3023;DHT22;1521;53.584;9.938;2024-02-23T04:41:41;5.70;1.00
3023;DHT22;1521;53.584;9.938;2024-02-23T04:44:07;5.70;1.00
3023;DHT22;1521;53.584;9.938;2024-02-23T04:46:33;5.80;1.00
3023;DHT22;1521;53.584;9.938;2024-02-23T04:48:59;5.70;1.00
3023;DHT22;1521;53.584;9.938;2024-02-23T04:51:25;5.70;1.00
3023;DHT22;1521;53.584;9.938;2024-02-23T04:53:51;5.70;1.00
3023;DHT22;1521;53.584;9.938;2024-02-23T04:56:16;5.70;1.00
3023;DHT22;1521;53.584;9.938;2024-02-23T04:58:43;5.70;1.00
3023;DHT22;1521;53.584;9.938;2024-02-23T05:01:08;5.70;1.00
3023;DHT22;1521;53.584;9.938;2024-02-23T05:03:34;5.70;1.00
3023;DHT22;1521;53.584;9.938;2024-02-23T05:06:00;5.60;1.00
3023;DHT22;1521;53.584;9.938;2024-02-23T05:08:25;5.60;1.00
3023;DHT22;1521;53.584;9.938;2024-02-23T05:10:53;5.60;1.00
3023;DHT22;1521;53.584;9.938;2024-02-23T05:13:19;5.60;1.00
3023;DHT22;1521;53.584;9.938;2024-02-23T05:15:44;5.60;1.00
3023;DHT22;1521;53.584;9.938;2024-02-23T05:18:10;5.60;1.00
3023;DHT22;1521;53.584;9.938;2024-02-23T05:20:35;5.60;1.00
3023;DHT22;1521;53.584;9.938;2024-02-23T05:23:01;5.60;1.00
3023;DHT22;1521;53.584;9.938;2024-02-23T05:25:26;5.60;1.00
3023;DHT22;1521;53.584;9.938;2024-02-23T05:27:53;5.50;1.00
3023;DHT22;1521;53.584;9.938;2024-02-23T05:30:18;5.50;1.00
3023;DHT22;1521;53.584;9.938;2024-02-23T05:32:44;5.50;1.00
3023;DHT22;1521;53.584;9.938;2024-02-23T05:35:10;5.50;1.00
3023;DHT22;1521;53.584;9.938;2024-02-23T05:37:36;5.50;1.00
3023;DHT22;1521;53.584;9.938;2024-02-23T05:40:03;5.50;1.00
3023;DHT22;1521;53.584;9.938;2024-02-23T05:42:32;5.60;1.00
3023;DHT22;1521;53.584;9.938;2024-02-23T05:44:58;5.60;1.00
3023;DHT22;1521;53.584;9.938;2024-02-23T05:47:23;5.60;1.00
3023;DHT22;1521;53.584;9.938;2024-02-23T05:49:50;5.60;1.00
3023;DHT22;1521;53.584;9.938;2024-02-23T05:52:16;5.50;1.00
3023;DHT22;1521;53.584;9.938;2024-02-23T05:54:41;5.60;1.00
3023;DHT22;1521;53.584;9.938;2024-02-23T05:57:07;5.60;1.00
3023;DHT22;1521;53.584;9.938;2024-02-23T05:59:32;5.60;1.00
3023;DHT22;1521;53.584;9.938;2024-02-23T06:01:58;5.60;1.00
3023;DHT22;1521;53.584;9.938;2024-02-23T06:04:24;5.60;1.00
3023;DHT22;1521;53.584;9.938;2024-02-23T06:06:50;5.60;1.00
3023;DHT22;1521;53.584;9.938;2024-02-23T06:09:15;5.60;1.00
3023;DHT22;1521;53.584;9.938;2024-02-23T06:11:41;5.60;1.00
3023;DHT22;1521;53.584;9.938;2024-02-23T06:14:07;5.50;1.00
3023;DHT22;1521;53.584;9.938;2024-02-23T06:16:33;5.50;1.00
3023;DHT22;1521;53.584;9.938;2024-02-23T06:18:59;5.50;1.00
3023;DHT22;1521;53.584;9.938;2024-02-23T06:21:25;5.40;1.00
3023;DHT22;1521;53.584;9.938;2024-02-23T06:23:50;5.50;1.00
3023;DHT22;1521;53.584;9.938;2024-02-23T06:26:16;5.50;1.00
3023;DHT22;1521;53.584;9.938;2024-02-23T06:28:42;5.50;1.00
3023;DHT22;1521;53.584;9.938;2024-02-23T06:31:08;5.50;1.00
3023;DHT22;1521;53.584;9.938;2024-02-23T06:33:34;5.50;1.00
3023;DHT22;1521;53.584;9.938;2024-02-23T06:36:00;5.40;1.00
3023;DHT22;1521;53.584;9.938;2024-02-23T06:38:26;5.50;1.00
3023;DHT22;1521;53.584;9.938;2024-02-23T06:40:52;5.40;1.00
3023;DHT22;1521;53.584;9.938;2024-02-23T06:43:18;5.40;1.00
3023;DHT22;1521;53.584;9.938;2024-02-23T06:45:44;5.60;1.00
3023;DHT22;1521;53.584;9.938;2024-02-23T06:48:10;5.50;1.00
3023;DHT22;1521;53.584;9.938;2024-02-23T06:50:36;5.40;1.00
3023;DHT22;1521;53.584;9.938;2024-02-23T06:53:01;5.40;1.00
3023;DHT22;1521;53.584;9.938;2024-02-23T06:55:27;5.40;1.00
3023;DHT22;1521;53.584;9.938;2024-02-23T06:57:54;5.40;1.00
3023;DHT22;1521;53.584;9.938;2024-02-23T07:00:20;5.40;1.00
3023;DHT22;1521;53.584;9.938;2024-02-23T07:02:46;5.40;1.00
3023;DHT22;1521;53.584;9.938;2024-02-23T07:05:12;5.40;1.00
3023;DHT22;1521;53.584;9.938;2024-02-23T07:07:39;5.50;1.00
3023;DHT22;1521;53.584;9.938;2024-02-23T07:10:06;5.50;1.00
3023;DHT22;1521;53.584;9.938;2024-02-23T07:12:31;5.50;1.00
3023;DHT22;1521;53.584;9.938;2024-02-23T07:14:57;5.50;1.00
3023;DHT22;1521;53.584;9.938;2024-02-23T07:17:23;5.50;1.00
3023;DHT22;1521;53.584;9.938;2024-02-23T07:19:48;5.50;1.00
3023;DHT22;1521;53.584;9.938;2024-02-23T07:22:16;5.50;1.00
3023;DHT22;1521;53.584;9.938;2024-02-23T07:24:43;5.50;1.00
3023;DHT22;1521;53.584;9.938;2024-02-23T07:27:09;5.50;1.00
3023;DHT22;1521;53.584;9.938;2024-02-23T07:29:35;5.50;1.00
3023;DHT22;1521;53.584;9.938;2024-02-23T07:32:00;5.40;1.00
3023;DHT22;1521;53.584;9.938;2024-02-23T07:34:26;5.50;1.00
3023;DHT22;1521;53.584;9.938;2024-02-23T07:36:52;5.50;1.00
3023;DHT22;1521;53.584;9.938;2024-02-23T07:39:18;5.60;1.00
3023;DHT22;1521;53.584;9.938;2024-02-23T07:41:44;5.60;1.00
3023;DHT22;1521;53.584;9.938;2024-02-23T07:44:10;5.60;1.00
3023;DHT22;1521;53.584;9.938;2024-02-23T07:46:35;5.60;1.00
3023;DHT22;1521;53.584;9.938;2024-02-23T07:49:02;5.60;1.00
3023;DHT22;1521;53.584;9.938;2024-02-23T07:51:27;5.50;1.00
3023;DHT22;1521;53.584;9.938;2024-02-23T07:53:53;5.60;1.00
3023;DHT22;1521;53.584;9.938;2024-02-23T07:56:19;5.80;1.00
3023;DHT22;1521;53.584;9.938;2024-02-23T07:58:44;6.10;1.00
3023;DHT22;1521;53.584;9.938;2024-02-23T08:01:10;6.50;1.00
3023;DHT22;1521;53.584;9.938;2024-02-23T08:03:35;6.70;1.00
3023;DHT22;1521;53.584;9.938;2024-02-23T08:06:01;6.80;1.00
3023;DHT22;1521;53.584;9.938;2024-02-23T08:08:26;7.00;1.00
3023;DHT22;1521;53.584;9.938;2024-02-23T08:10:53;7.40;1.00
3023;DHT22;1521;53.584;9.938;2024-02-23T08:13:19;7.80;1.00
3023;DHT22;1521;53.584;9.938;2024-02-23T08:15:44;8.50;1.00
3023;DHT22;1521;53.584;9.938;2024-02-23T08:18:10;9.30;1.00
3023;DHT22;1521;53.584;9.938;2024-02-23T08:20:36;9.70;1.00
3023;DHT22;1521;53.584;9.938;2024-02-23T08:23:02;9.90;1.00
3023;DHT22;1521;53.584;9.938;2024-02-23T08:25:28;10.10;1.00
3023;DHT22;1521;53.584;9.938;2024-02-23T08:27:55;10.30;1.00
3023;DHT22;1521;53.584;9.938;2024-02-23T08:30:22;10.60;1.00
3023;DHT22;1521;53.584;9.938;2024-02-23T08:32:47;10.80;1.00
3023;DHT22;1521;53.584;9.938;2024-02-23T08:35:13;10.70;1.00
3023;DHT22;1521;53.584;9.938;2024-02-23T08:37:40;10.50;1.00
3023;DHT22;1521;53.584;9.938;2024-02-23T08:40:08;10.00;1.00
3023;DHT22;1521;53.584;9.938;2024-02-23T08:42:33;9.20;1.00
3023;DHT22;1521;53.584;9.938;2024-02-23T08:44:59;8.30;1.00
3023;DHT22;1521;53.584;9.938;2024-02-23T08:47:24;7.80;1.00
3023;DHT22;1521;53.584;9.938;2024-02-23T08:49:53;7.70;1.00
3023;DHT22;1521;53.584;9.938;2024-02-23T08:52:19;7.70;1.00
3023;DHT22;1521;53.584;9.938;2024-02-23T08:54:47;7.40;1.00
3023;DHT22;1521;53.584;9.938;2024-02-23T08:57:12;7.20;1.00
3023;DHT22;1521;53.584;9.938;2024-02-23T08:59:42;7.00;1.00
3023;DHT22;1521;53.584;9.938;2024-02-23T09:02:08;7.10;1.00
3023;DHT22;1521;53.584;9.938;2024-02-23T09:04:35;7.10;1.00
3023;DHT22;1521;53.584;9.938;2024-02-23T09:07:01;7.10;1.00
3023;DHT22;1521;53.584;9.938;2024-02-23T09:09:26;7.30;1.00
3023;DHT22;1521;53.584;9.938;2024-02-23T09:11:52;7.40;1.00
3023;DHT22;1521;53.584;9.938;2024-02-23T09:14:18;7.40;1.00
3023;DHT22;1521;53.584;9.938;2024-02-23T09:16:43;7.40;1.00
3023;DHT22;1521;53.584;9.938;2024-02-23T09:19:09;7.40;1.00
3023;DHT22;1521;53.584;9.938;2024-02-23T09:21:35;7.40;1.00
3023;DHT22;1521;53.584;9.938;2024-02-23T09:24:01;7.40;1.00
3023;DHT22;1521;53.584;9.938;2024-02-23T09:26:26;7.30;1.00
3023;DHT22;1521;53.584;9.938;2024-02-23T09:28:52;7.20;1.00
3023;DHT22;1521;53.584;9.938;2024-02-23T09:31:18;7.30;1.00
3023;DHT22;1521;53.584;9.938;2024-02-23T09:33:45;7.30;1.00
3023;DHT22;1521;53.584;9.938;2024-02-23T09:36:11;7.20;1.00
3023;DHT22;1521;53.584;9.938;2024-02-23T09:38:37;7.30;1.00
3023;DHT22;1521;53.584;9.938;2024-02-23T09:41:03;7.40;1.00
3023;DHT22;1521;53.584;9.938;2024-02-23T09:43:30;7.50;1.00
3023;DHT22;1521;53.584;9.938;2024-02-23T09:45:57;7.50;1.00
3023;DHT22;1521;53.584;9.938;2024-02-23T09:48:23;7.50;1.00
3023;DHT22;1521;53.584;9.938;2024-02-23T09:50:50;7.50;1.00
3023;DHT22;1521;53.584;9.938;2024-02-23T09:53:17;7.60;1.00
3023;DHT22;1521;53.584;9.938;2024-02-23T09:55:45;7.70;1.00
3023;DHT22;1521;53.584;9.938;2024-02-23T09:58:13;7.80;1.00
3023;DHT22;1521;53.584;9.938;2024-02-23T10:00:39;7.90;1.00
3023;DHT22;1521;53.584;9.938;2024-02-23T10:03:05;8.10;1.00
3023;DHT22;1521;53.584;9.938;2024-02-23T10:05:31;8.10;1.00
3023;DHT22;1521;53.584;9.938;2024-02-23T10:07:57;8.10;1.00
3023;DHT22;1521;53.584;9.938;2024-02-23T10:10:30;8.20;1.00
3023;DHT22;1521;53.584;9.938;2024-02-23T10:12:57;8.20;1.00
3023;DHT22;1521;53.584;9.938;2024-02-23T10:15:23;8.20;1.00
3023;DHT22;1521;53.584;9.938;2024-02-23T10:17:48;8.30;1.00
3023;DHT22;1521;53.584;9.938;2024-02-23T10:20:14;8.50;1.00
3023;DHT22;1521;53.584;9.938;2024-02-23T10:22:39;8.80;1.00
3023;DHT22;1521;53.584;9.938;2024-02-23T10:25:05;9.00;1.00
3023;DHT22;1521;53.584;9.938;2024-02-23T10:27:31;9.40;1.00
3023;DHT22;1521;53.584;9.938;2024-02-23T10:29:56;9.80;1.00
3023;DHT22;1521;53.584;9.938;2024-02-23T10:32:23;9.90;1.00
3023;DHT22;1521;53.584;9.938;2024-02-23T10:34:49;9.80;1.00
3023;DHT22;1521;53.584;9.938;2024-02-23T10:37:16;9.70;1.00
3023;DHT22;1521;53.584;9.938;2024-02-23T10:39:42;9.60;1.00
3023;DHT22;1521;53.584;9.938;2024-02-23T10:42:09;9.50;1.00
3023;DHT22;1521;53.584;9.938;2024-02-23T10:44:36;9.40;1.00
3023;DHT22;1521;53.584;9.938;2024-02-23T10:47:02;9.60;1.00
3023;DHT22;1521;53.584;9.938;2024-02-23T10:49:29;9.30;1.00
3023;DHT22;1521;53.584;9.938;2024-02-23T10:51:56;9.20;1.00
3023;DHT22;1521;53.584;9.938;2024-02-23T10:54:22;8.90;1.00
3023;DHT22;1521;53.584;9.938;2024-02-23T10:56:50;10.30;1.00
3023;DHT22;1521;53.584;9.938;2024-02-23T10:59:17;8.60;1.00
3023;DHT22;1521;53.584;9.938;2024-02-23T11:01:49;8.50;1.00
3023;DHT22;1521;53.584;9.938;2024-02-23T11:04:16;8.40;1.00
3023;DHT22;1521;53.584;9.938;2024-02-23T11:06:42;8.40;1.00
3023;DHT22;1521;53.584;9.938;2024-02-23T11:09:12;8.40;1.00
3023;DHT22;1521;53.584;9.938;2024-02-23T11:11:38;8.40;1.00
3023;DHT22;1521;53.584;9.938;2024-02-23T11:14:07;8.50;1.00
3023;DHT22;1521;53.584;9.938;2024-02-23T11:16:38;8.50;1.00
3023;DHT22;1521;53.584;9.938;2024-02-23T11:19:06;8.40;1.00
3023;DHT22;1521;53.584;9.938;2024-02-23T11:21:35;8.40;1.00
3023;DHT22;1521;53.584;9.938;2024-02-23T11:24:05;8.40;1.00
3023;DHT22;1521;53.584;9.938;2024-02-23T11:26:31;8.40;1.00
3023;DHT22;1521;53.584;9.938;2024-02-23T11:28:59;8.40;1.00
3023;DHT22;1521;53.584;9.938;2024-02-23T11:31:29;8.40;1.00
3023;DHT22;1521;53.584;9.938;2024-02-23T11:33:56;8.50;1.00
3023;DHT22;1521;53.584;9.938;2024-02-23T11:36:32;8.50;1.00
3023;DHT22;1521;53.584;9.938;2024-02-23T11:38:59;8.50;1.00
3023;DHT22;1521;53.584;9.938;2024-02-23T11:41:26;8.50;1.00
3023;DHT22;1521;53.584;9.938;2024-02-23T11:43:53;8.70;1.00
3023;DHT22;1521;53.584;9.938;2024-02-23T11:46:20;9.40;1.00
3023;DHT22;1521;53.584;9.938;2024-02-23T11:48:46;10.20;1.00
3023;DHT22;1521;53.584;9.938;2024-02-23T11:51:15;10.20;1.00
3023;DHT22;1521;53.584;9.938;2024-02-23T11:53:41;10.00;1.00
3023;DHT22;1521;53.584;9.938;2024-02-23T11:56:07;9.70;1.00
3023;DHT22;1521;53.584;9.938;2024-02-23T11:58:34;9.70;1.00
3023;DHT22;1521;53.584;9.938;2024-02-23T12:01:00;9.60;1.00
3023;DHT22;1521;53.584;9.938;2024-02-23T12:03:31;9.50;1.00
3023;DHT22;1521;53.584;9.938;2024-02-23T12:06:00;9.40;1.00
3023;DHT22;1521;53.584;9.938;2024-02-23T12:08:26;9.20;1.00
3023;DHT22;1521;53.584;9.938;2024-02-23T12:10:56;9.10;1.00
3023;DHT22;1521;53.584;9.938;2024-02-23T12:13:23;9.10;1.00
3023;DHT22;1521;53.584;9.938;2024-02-23T12:15:51;9.10;1.00
3023;DHT22;1521;53.584;9.938;2024-02-23T12:18:18;9.10;1.00
3023;DHT22;1521;53.584;9.938;2024-02-23T12:20:47;9.10;1.00
3023;DHT22;1521;53.584;9.938;2024-02-23T12:23:12;9.10;1.00
3023;DHT22;1521;53.584;9.938;2024-02-23T12:25:38;8.90;1.00
3023;DHT22;1521;53.584;9.938;2024-02-23T12:28:04;8.80;1.00
3023;DHT22;1521;53.584;9.938;2024-02-23T12:30:30;8.80;1.00
3023;DHT22;1521;53.584;9.938;2024-02-23T12:33:23;8.80;1.00
3023;DHT22;1521;53.584;9.938;2024-02-23T12:35:48;8.70;1.00
3023;DHT22;1521;53.584;9.938;2024-02-23T12:38:14;8.60;1.00
3023;DHT22;1521;53.584;9.938;2024-02-23T12:40:39;8.60;1.00
3023;DHT22;1521;53.584;9.938;2024-02-23T12:43:05;8.60;1.00
3023;DHT22;1521;53.584;9.938;2024-02-23T12:45:30;8.70;1.00
3023;DHT22;1521;53.584;9.938;2024-02-23T12:47:56;8.80;1.00
3023;DHT22;1521;53.584;9.938;2024-02-23T12:50:22;8.80;1.00
3023;DHT22;1521;53.584;9.938;2024-02-23T12:52:47;9.20;1.00
3023;DHT22;1521;53.584;9.938;2024-02-23T12:55:13;8.90;1.00
3023;DHT22;1521;53.584;9.938;2024-02-23T12:57:38;8.90;1.00
3023;DHT22;1521;53.584;9.938;2024-02-23T13:00:04;9.00;1.00
3023;DHT22;1521;53.584;9.938;2024-02-23T13:02:30;9.00;1.00
3023;DHT22;1521;53.584;9.938;2024-02-23T13:04:56;9.10;1.00
3023;DHT22;1521;53.584;9.938;2024-02-23T13:07:21;9.30;1.00
3023;DHT22;1521;53.584;9.938;2024-02-23T13:09:47;9.30;1.00
3023;DHT22;1521;53.584;9.938;2024-02-23T13:12:12;9.40;1.00
3023;DHT22;1521;53.584;9.938;2024-02-23T13:14:38;9.20;1.00
3023;DHT22;1521;53.584;9.938;2024-02-23T13:17:04;9.20;1.00
3023;DHT22;1521;53.584;9.938;2024-02-23T13:19:30;9.20;1.00
3023;DHT22;1521;53.584;9.938;2024-02-23T13:21:55;9.20;1.00
3023;DHT22;1521;53.584;9.938;2024-02-23T13:24:21;9.20;1.00
3023;DHT22;1521;53.584;9.938;2024-02-23T13:26:46;9.10;1.00
3023;DHT22;1521;53.584;9.938;2024-02-23T13:29:12;9.10;1.00
3023;DHT22;1521;53.584;9.938;2024-02-23T13:31:37;9.00;1.00
3023;DHT22;1521;53.584;9.938;2024-02-23T13:34:04;9.00;1.00
3023;DHT22;1521;53.584;9.938;2024-02-23T13:36:30;8.90;1.00
3023;DHT22;1521;53.584;9.938;2024-02-23T13:38:56;8.90;1.00
3023;DHT22;1521;53.584;9.938;2024-02-23T13:41:22;8.90;1.00
3023;DHT22;1521;53.584;9.938;2024-02-23T13:43:47;8.90;1.00
3023;DHT22;1521;53.584;9.938;2024-02-23T13:46:13;8.80;1.00
3023;DHT22;1521;53.584;9.938;2024-02-23T13:48:38;8.80;1.00
3023;DHT22;1521;53.584;9.938;2024-02-23T13:51:04;8.80;1.00
3023;DHT22;1521;53.584;9.938;2024-02-23T13:53:31;8.80;1.00
3023;DHT22;1521;53.584;9.938;2024-02-23T13:55:58;8.70;1.00
3023;DHT22;1521;53.584;9.938;2024-02-23T13:58:24;8.70;1.00
3023;DHT22;1521;53.584;9.938;2024-02-23T14:00:49;8.70;1.00
3023;DHT22;1521;53.584;9.938;2024-02-23T14:03:18;8.70;1.00
3023;DHT22;1521;53.584;9.938;2024-02-23T14:05:43;8.70;1.00
3023;DHT22;1521;53.584;9.938;2024-02-23T14:08:10;8.80;1.00
3023;DHT22;1521;53.584;9.938;2024-02-23T14:10:36;8.80;1.00
3023;DHT22;1521;53.584;9.938;2024-02-23T14:13:02;8.90;1.00
3023;DHT22;1521;53.584;9.938;2024-02-23T14:15:27;8.90;1.00
3023;DHT22;1521;53.584;9.938;2024-02-23T14:17:53;9.00;1.00
3023;DHT22;1521;53.584;9.938;2024-02-23T14:20:18;9.50;1.00
3023;DHT22;1521;53.584;9.938;2024-02-23T14:22:44;9.80;1.00
3023;DHT22;1521;53.584;9.938;2024-02-23T14:25:10;10.70;1.00
3023;DHT22;1521;53.584;9.938;2024-02-23T14:27:36;11.80;1.00
3023;DHT22;1521;53.584;9.938;2024-02-23T14:30:01;12.00;1.00
3023;DHT22;1521;53.584;9.938;2024-02-23T14:32:27;11.60;1.00
3023;DHT22;1521;53.584;9.938;2024-02-23T14:34:53;11.20;1.00
3023;DHT22;1521;53.584;9.938;2024-02-23T14:37:18;10.80;1.00
3023;DHT22;1521;53.584;9.938;2024-02-23T14:39:44;10.40;1.00
3023;DHT22;1521;53.584;9.938;2024-02-23T14:42:09;10.20;1.00
3023;DHT22;1521;53.584;9.938;2024-02-23T14:44:35;10.00;1.00
3023;DHT22;1521;53.584;9.938;2024-02-23T14:47:02;9.80;1.00
3023;DHT22;1521;53.584;9.938;2024-02-23T14:49:27;9.70;1.00
3023;DHT22;1521;53.584;9.938;2024-02-23T14:51:53;9.50;1.00
3023;DHT22;1521;53.584;9.938;2024-02-23T14:54:18;9.40;1.00
3023;DHT22;1521;53.584;9.938;2024-02-23T14:56:44;9.40;1.00
3023;DHT22;1521;53.584;9.938;2024-02-23T14:59:10;9.30;1.00
3023;DHT22;1521;53.584;9.938;2024-02-23T15:01:37;9.30;1.00
3023;DHT22;1521;53.584;9.938;2024-02-23T15:04:04;9.30;1.00
3023;DHT22;1521;53.584;9.938;2024-02-23T15:06:29;9.20;1.00
3023;DHT22;1521;53.584;9.938;2024-02-23T15:08:55;9.20;1.00
3023;DHT22;1521;53.584;9.938;2024-02-23T15:11:21;9.30;1.00
3023;DHT22;1521;53.584;9.938;2024-02-23T15:13:47;9.30;1.00
3023;DHT22;1521;53.584;9.938;2024-02-23T15:16:12;9.30;1.00
3023;DHT22;1521;53.584;9.938;2024-02-23T15:18:38;9.20;1.00
3023;DHT22;1521;53.584;9.938;2024-02-23T15:21:04;9.30;1.00
3023;DHT22;1521;53.584;9.938;2024-02-23T15:23:29;9.40;1.00
3023;DHT22;1521;53.584;9.938;2024-02-23T15:25:55;9.40;1.00
3023;DHT22;1521;53.584;9.938;2024-02-23T15:28:21;9.40;1.00
3023;DHT22;1521;53.584;9.938;2024-02-23T15:30:51;9.40;1.00
3023;DHT22;1521;53.584;9.938;2024-02-23T15:33:21;9.40;1.00
3023;DHT22;1521;53.584;9.938;2024-02-23T15:35:46;9.40;1.00
3023;DHT22;1521;53.584;9.938;2024-02-23T15:38:12;9.50;1.00
3023;DHT22;1521;53.584;9.938;2024-02-23T15:40:37;9.50;1.00
3023;DHT22;1521;53.584;9.938;2024-02-23T15:43:03;9.40;1.00
3023;DHT22;1521;53.584;9.938;2024-02-23T15:45:29;9.30;1.00
3023;DHT22;1521;53.584;9.938;2024-02-23T15:47:54;9.20;1.00
3023;DHT22;1521;53.584;9.938;2024-02-23T15:50:20;9.20;1.00
3023;DHT22;1521;53.584;9.938;2024-02-23T15:52:47;9.80;1.00
3023;DHT22;1521;53.584;9.938;2024-02-23T15:55:13;9.20;1.00
3023;DHT22;1521;53.584;9.938;2024-02-23T15:57:39;9.20;1.00
3023;DHT22;1521;53.584;9.938;2024-02-23T16:00:05;9.20;1.00
3023;DHT22;1521;53.584;9.938;2024-02-23T16:02:33;9.20;1.00
3023;DHT22;1521;53.584;9.938;2024-02-23T16:05:01;9.20;1.00
3023;DHT22;1521;53.584;9.938;2024-02-23T16:07:26;9.20;1.00
3023;DHT22;1521;53.584;9.938;2024-02-23T16:09:52;9.10;1.00
3023;DHT22;1521;53.584;9.938;2024-02-23T16:12:17;9.00;1.00
3023;DHT22;1521;53.584;9.938;2024-02-23T16:14:43;9.10;1.00
3023;DHT22;1521;53.584;9.938;2024-02-23T16:17:09;9.10;1.00
3023;DHT22;1521;53.584;9.938;2024-02-23T16:19:34;9.10;1.00
3023;DHT22;1521;53.584;9.938;2024-02-23T16:22:00;9.10;1.00
3023;DHT22;1521;53.584;9.938;2024-02-23T16:24:26;9.00;1.00
3023;DHT22;1521;53.584;9.938;2024-02-23T16:26:51;9.00;1.00